Time;durP1;ratioP1;P1;durP2;ratioP2;P2;SDS_P1;SDS_P2;PMS_P1;PMS_P2;Temp;Humidity;BMP_temperature;BMP_pressure;BME280_temperature;BME280_humidity;BME280_pressure;Samples;Min_cycle;Max_cycle;Signal;HPM_P1;HPM_P2
2021/03/15 00:00:45;;;;;;;5.30;4.70;;;3.00;99.90;;;;;;4880033;29;20540;-85
2021/03/15 00:03:11;;;;;;;5.30;4.80;;;3.00;99.90;;;;;;4875813;29;20504;-86
2021/03/15 00:05:38;;;;;;;6.67;4.50;;;3.00;99.90;;;;;;4889891;29;20445;-86
2021/03/15 00:08:06;;;;;;;6.20;5.60;;;3.00;99.90;;;;;;4879937;29;20456;-85
2021/03/15 00:10:32;;;;;;;6.10;4.90;;;3.00;99.90;;;;;;4875529;29;20519;-86
2021/03/15 00:12:58;;;;;;;6.00;5.10;;;3.00;99.90;;;;;;4898110;29;20477;-87
2021/03/15 00:15:25;;;;;;;5.03;4.53;;;3.00;99.90;;;;;;4881842;29;20531;-87
2021/03/15 00:17:51;;;;;;;5.17;4.50;;;2.90;99.90;;;;;;4890827;29;20196;-85
2021/03/15 00:20:19;;;;;;;4.43;4.03;;;2.90;99.90;;;;;;4877334;29;20464;-85
2021/03/15 00:22:46;;;;;;;4.40;4.00;;;2.90;99.90;;;;;;4879455;29;20988;-85
2021/03/15 00:25:13;;;;;;;5.57;3.93;;;2.90;99.90;;;;;;4886087;29;20547;-85
2021/03/15 00:27:40;;;;;;;4.90;4.50;;;2.90;99.90;;;;;;4885853;29;20591;-86
2021/03/15 00:30:08;;;;;;;4.80;4.30;;;2.80;99.90;;;;;;4883111;29;21173;-86
2021/03/15 00:32:34;;;;;;;4.73;4.33;;;2.80;99.90;;;;;;4885097;29;20940;-85
2021/03/15 00:35:00;;;;;;;4.93;4.23;;;2.70;99.90;;;;;;4884692;29;20507;-85
2021/03/15 00:37:25;;;;;;;5.93;4.20;;;2.70;99.90;;;;;;4876170;29;20456;-85
2021/03/15 00:39:53;;;;;;;6.70;4.67;;;2.60;99.90;;;;;;4882894;29;20212;-86
2021/03/15 00:42:19;;;;;;;4.70;4.30;;;2.60;99.90;;;;;;4874441;29;20265;-86
2021/03/15 00:44:45;;;;;;;4.47;3.57;;;2.60;99.90;;;;;;4879709;29;20466;-86
2021/03/15 00:47:11;;;;;;;4.67;4.23;;;2.60;99.90;;;;;;4883330;29;20236;-85
2021/03/15 00:49:37;;;;;;;5.10;4.23;;;2.50;99.90;;;;;;4876859;29;20219;-86
2021/03/15 00:52:03;;;;;;;5.07;3.67;;;2.50;99.90;;;;;;4882190;29;20457;-85
2021/03/15 00:54:29;;;;;;;4.30;3.90;;;2.50;99.90;;;;;;4879830;29;20264;-86
2021/03/15 00:56:54;;;;;;;5.40;4.30;;;2.50;99.90;;;;;;4880393;29;20565;-86
2021/03/15 00:59:20;;;;;;;5.57;3.93;;;2.50;99.90;;;;;;4887553;29;20223;-85
2021/03/15 01:01:46;;;;;;;5.83;3.90;;;2.50;99.90;;;;;;4878836;29;20555;-85
2021/03/15 01:04:14;;;;;;;4.60;4.20;;;2.50;99.90;;;;;;4876926;29;20208;-85
2021/03/15 01:06:40;;;;;;;4.50;4.07;;;2.50;99.90;;;;;;4880515;29;20465;-85
2021/03/15 01:09:06;;;;;;;4.50;3.80;;;2.50;99.90;;;;;;4884361;29;20455;-85
2021/03/15 01:11:32;;;;;;;5.37;3.80;;;2.50;99.90;;;;;;4888447;29;20480;-85
2021/03/15 01:13:58;;;;;;;5.13;3.70;;;2.50;99.90;;;;;;4877086;29;20549;-86
2021/03/15 01:16:24;;;;;;;4.17;3.50;;;2.50;99.90;;;;;;4880024;29;20216;-86
2021/03/15 01:18:49;;;;;;;4.63;3.43;;;2.50;99.90;;;;;;4899146;29;21122;-86
2021/03/15 01:21:16;;;;;;;4.73;4.07;;;2.40;99.90;;;;;;4878856;29;20727;-86
2021/03/15 01:23:41;;;;;;;4.63;3.50;;;2.40;99.90;;;;;;4874044;29;20260;-86
2021/03/15 01:26:07;;;;;;;4.37;3.93;;;2.40;99.90;;;;;;4885889;29;20452;-86
2021/03/15 01:28:33;;;;;;;3.67;3.37;;;2.40;99.90;;;;;;4884091;29;20201;-86
2021/03/15 01:31:00;;;;;;;5.00;4.07;;;2.30;99.90;;;;;;4885907;29;20226;-85
2021/03/15 01:33:26;;;;;;;5.00;4.10;;;2.30;99.90;;;;;;4881278;29;20457;-85
2021/03/15 01:35:52;;;;;;;3.87;3.57;;;2.20;99.90;;;;;;4881946;29;20800;-86
2021/03/15 01:38:18;;;;;;;4.00;3.70;;;2.20;99.90;;;;;;4878091;29;20455;-85
2021/03/15 01:40:44;;;;;;;11.07;3.87;;;2.30;99.90;;;;;;4880361;29;20457;-85
2021/03/15 01:43:10;;;;;;;5.33;3.40;;;2.20;99.90;;;;;;4878157;29;20789;-85
2021/03/15 01:45:36;;;;;;;5.60;3.77;;;2.20;99.90;;;;;;4875630;29;21995;-86
2021/03/15 01:48:05;;;;;;;5.07;3.73;;;2.10;99.90;;;;;;4873197;29;20440;-86
2021/03/15 01:50:31;;;;;;;3.87;3.50;;;2.10;99.90;;;;;;4883826;29;22230;-85
2021/03/15 01:52:57;;;;;;;4.63;3.13;;;2.10;99.90;;;;;;4881275;29;20445;-87
2021/03/15 01:55:29;;;;;;;4.30;3.63;;;2.10;99.90;;;;;;4891139;29;20466;-86
2021/03/15 01:57:55;;;;;;;3.53;3.13;;;2.10;99.90;;;;;;4876455;29;20521;-86
2021/03/15 02:00:28;;;;;;;4.90;3.67;;;2.20;99.90;;;;;;4879941;29;20216;-86
2021/03/15 02:02:59;;;;;;;3.43;3.13;;;2.20;99.90;;;;;;4878487;29;20859;-86
2021/03/15 02:05:26;;;;;;;4.40;3.53;;;2.30;99.90;;;;;;4879447;29;20204;-86
2021/03/15 02:07:53;;;;;;;4.00;3.50;;;2.30;99.90;;;;;;4876528;29;20449;-87
2021/03/15 02:10:19;;;;;;;4.83;3.70;;;2.20;99.90;;;;;;4879486;29;20477;-86
2021/03/15 02:13:25;;;;;;;5.17;3.30;;;2.30;99.90;;;;;;4867190;29;21030;-85
2021/03/15 02:16:10;;;;;;;3.30;2.70;;;2.30;99.90;;;;;;4877956;29;20189;-85
2021/03/15 02:19:18;;;;;;;4.27;3.10;;;2.40;99.90;;;;;;4884625;29;20506;-85
2021/03/15 02:22:06;;;;;;;4.50;3.60;;;2.40;99.90;;;;;;4879916;29;20453;-86
2021/03/15 02:25:23;;;;;;;4.00;3.33;;;2.40;99.90;;;;;;4881491;29;20563;-85
2021/03/15 02:28:10;;;;;;;4.23;3.43;;;2.40;99.90;;;;;;4890628;29;20456;-86
2021/03/15 02:30:50;;;;;;;3.40;3.10;;;2.30;99.90;;;;;;4879855;29;20545;-85
2021/03/15 02:33:37;;;;;;;4.77;2.87;;;2.20;99.90;;;;;;4879532;29;20445;-85
2021/03/15 02:36:05;;;;;;;3.37;3.07;;;2.30;99.90;;;;;;4875423;29;20495;-86
2021/03/15 02:38:35;;;;;;;4.90;3.17;;;2.30;99.90;;;;;;4882587;29;20547;-86
2021/03/15 02:41:03;;;;;;;5.03;3.30;;;2.30;99.90;;;;;;4883747;29;20456;-86
2021/03/15 02:43:34;;;;;;;4.20;3.57;;;2.30;99.90;;;;;;4880904;29;20527;-86
2021/03/15 02:46:06;;;;;;;5.10;3.73;;;2.30;99.90;;;;;;4877051;29;20804;-86
2021/03/15 02:48:35;;;;;;;6.00;3.50;;;2.30;99.90;;;;;;4880065;29;20445;-86
2021/03/15 02:51:01;;;;;;;3.97;3.20;;;2.30;99.90;;;;;;4879354;29;21663;-85
2021/03/15 02:53:28;;;;;;;4.87;4.10;;;2.20;99.90;;;;;;4882833;29;20460;-86
2021/03/15 02:56:01;;;;;;;4.13;3.43;;;2.30;99.90;;;;;;4883841;29;20452;-86
2021/03/15 02:58:28;;;;;;;4.10;3.07;;;2.20;99.90;;;;;;4887123;29;20507;-86
2021/03/15 03:00:56;;;;;;;3.47;3.17;;;2.30;99.90;;;;;;4883831;29;20460;-86
2021/03/15 03:03:24;;;;;;;4.90;3.43;;;2.30;99.90;;;;;;4873983;29;20986;-87
2021/03/15 03:05:51;;;;;;;4.33;3.30;;;2.20;99.90;;;;;;4877022;29;20464;-87
2021/03/15 03:08:19;;;;;;;6.73;3.63;;;2.20;99.90;;;;;;4882153;29;20848;-87
2021/03/15 03:10:47;;;;;;;3.57;3.27;;;2.30;99.90;;;;;;4883467;29;20516;-86
2021/03/15 03:13:15;;;;;;;5.03;3.27;;;2.30;99.90;;;;;;4881589;29;20947;-86
2021/03/15 03:15:42;;;;;;;4.43;3.57;;;2.30;99.90;;;;;;4880562;29;21155;-86
2021/03/15 03:18:14;;;;;;;5.50;3.33;;;2.30;99.90;;;;;;4879801;29;20445;-87
2021/03/15 03:20:43;;;;;;;3.40;3.10;;;2.40;99.90;;;;;;4871620;29;21135;-87
2021/03/15 03:23:09;;;;;;;3.20;2.90;;;2.50;99.90;;;;;;4881561;29;20537;-87
2021/03/15 03:25:36;;;;;;;4.30;3.30;;;2.50;99.90;;;;;;4884778;29;20896;-87
2021/03/15 03:28:04;;;;;;;4.40;3.50;;;2.60;99.90;;;;;;4883067;29;20602;-86
2021/03/15 03:30:37;;;;;;;3.30;3.10;;;2.70;99.90;;;;;;4884338;29;20497;-87
2021/03/15 03:33:06;;;;;;;4.00;3.07;;;2.60;99.90;;;;;;4880150;29;20551;-87
2021/03/15 03:35:32;;;;;;;7.57;4.10;;;2.60;99.90;;;;;;4874989;29;20454;-86
2021/03/15 03:37:59;;;;;;;4.07;3.53;;;2.60;99.90;;;;;;4884614;29;20512;-86
2021/03/15 03:40:25;;;;;;;3.63;3.00;;;2.60;99.90;;;;;;4882519;29;20461;-86
2021/03/15 03:42:51;;;;;;;3.50;3.20;;;2.60;99.90;;;;;;4877623;29;20459;-86
2021/03/15 03:45:17;;;;;;;3.20;2.90;;;2.60;99.90;;;;;;4877339;29;21923;-85
2021/03/15 03:47:43;;;;;;;6.40;3.07;;;2.50;99.90;;;;;;4887641;29;20214;-86
2021/03/15 03:50:14;;;;;;;5.70;3.17;;;2.50;99.90;;;;;;4873903;29;20771;-86
2021/03/15 03:53:11;;;;;;;4.00;2.80;;;2.60;99.90;;;;;;4881910;29;20460;-87
2021/03/15 03:56:29;;;;;;;4.83;3.00;;;2.60;99.90;;;;;;4878025;29;20467;-86
2021/03/15 03:58:55;;;;;;;3.10;2.57;;;2.60;99.90;;;;;;4860566;29;20453;-86
2021/03/15 04:01:29;;;;;;;5.80;3.20;;;2.60;99.90;;;;;;4883224;29;20571;-86
2021/03/15 04:03:56;;;;;;;6.47;2.67;;;2.70;99.90;;;;;;4875696;29;20501;-86
2021/03/15 04:06:28;;;;;;;3.13;2.60;;;2.80;99.90;;;;;;4876648;29;20548;-86
2021/03/15 04:08:57;;;;;;;2.80;2.50;;;2.70;99.90;;;;;;4880028;29;20470;-86
2021/03/15 04:11:25;;;;;;;3.60;3.30;;;2.80;99.90;;;;;;4880061;29;20488;-85
2021/03/15 04:13:53;;;;;;;5.53;2.90;;;2.70;99.90;;;;;;4879612;29;20847;-86
2021/03/15 04:16:24;;;;;;;4.60;3.00;;;2.70;99.90;;;;;;4877511;29;20489;-86
2021/03/15 04:18:53;;;;;;;3.00;2.50;;;2.70;99.90;;;;;;4882987;29;20445;-86
2021/03/15 04:21:23;;;;;;;3.80;2.80;;;2.70;99.90;;;;;;4892400;29;20965;-85
2021/03/15 04:23:50;;;;;;;5.33;3.10;;;2.80;99.90;;;;;;4883189;29;20517;-86
2021/03/15 04:26:17;;;;;;;2.20;2.10;;;2.80;99.90;;;;;;4875963;29;20457;-86
2021/03/15 04:28:45;;;;;;;8.03;2.80;;;2.80;99.90;;;;;;4881761;29;20844;-86
2021/03/15 04:31:14;;;;;;;4.30;2.97;;;2.80;99.90;;;;;;4878921;29;20488;-87
2021/03/15 04:33:41;;;;;;;3.97;2.80;;;2.80;99.90;;;;;;4878251;29;20501;-86
2021/03/15 04:36:07;;;;;;;4.37;3.00;;;2.80;99.90;;;;;;4877365;29;20448;-86
2021/03/15 04:38:45;;;;;;;2.83;2.60;;;2.80;99.90;;;;;;4878347;29;20459;-86
2021/03/15 04:41:12;;;;;;;4.97;3.20;;;2.90;99.90;;;;;;4875703;29;20973;-87
2021/03/15 04:43:39;;;;;;;6.50;2.90;;;2.80;99.90;;;;;;4872240;29;20848;-86
2021/03/15 04:46:07;;;;;;;5.00;2.97;;;2.90;99.90;;;;;;4877975;29;20476;-87
2021/03/15 04:48:33;;;;;;;3.30;2.90;;;2.90;99.90;;;;;;4872961;29;20471;-87
2021/03/15 04:51:02;;;;;;;8.87;3.10;;;2.80;99.90;;;;;;4875946;29;20477;-87
2021/03/15 04:53:28;;;;;;;4.03;3.63;;;2.90;99.90;;;;;;4872416;29;20518;-87
2021/03/15 04:56:03;;;;;;;3.30;2.50;;;2.90;99.90;;;;;;4877637;29;20450;-87
2021/03/15 04:58:30;;;;;;;5.33;2.70;;;2.90;99.90;;;;;;4888097;29;20600;-87
2021/03/15 05:01:00;;;;;;;5.70;2.70;;;2.90;99.90;;;;;;4880514;29;20469;-85
2021/03/15 05:03:26;;;;;;;4.80;3.10;;;2.90;99.90;;;;;;4870230;29;20449;-86
2021/03/15 05:05:54;;;;;;;3.77;3.47;;;3.00;99.90;;;;;;4877235;29;20452;-86
2021/03/15 05:08:23;;;;;;;3.77;3.43;;;3.00;99.90;;;;;;4874743;29;20212;-85
2021/03/15 05:10:50;;;;;;;6.00;3.70;;;3.00;99.90;;;;;;4870074;29;20512;-86
2021/03/15 05:13:17;;;;;;;5.70;2.90;;;3.10;99.90;;;;;;4874863;29;20496;-83
2021/03/15 05:15:43;;;;;;;3.70;3.10;;;3.10;99.90;;;;;;4882680;29;20464;-85
2021/03/15 05:18:12;;;;;;;4.60;3.97;;;3.10;99.90;;;;;;4882880;29;20512;-85
2021/03/15 05:20:38;;;;;;;3.87;3.43;;;3.10;99.90;;;;;;4872063;29;21176;-87
2021/03/15 05:23:07;;;;;;;6.07;3.87;;;3.10;99.90;;;;;;4871316;29;20473;-86
2021/03/15 05:25:34;;;;;;;4.53;3.20;;;3.10;99.90;;;;;;4877069;29;20496;-87
2021/03/15 05:28:01;;;;;;;4.27;3.27;;;3.20;99.90;;;;;;4875456;29;20441;-87
2021/03/15 05:30:29;;;;;;;4.10;3.50;;;3.20;99.90;;;;;;4877730;29;20483;-87
2021/03/15 05:32:55;;;;;;;5.63;3.77;;;3.20;99.90;;;;;;4883552;29;20449;-89
2021/03/15 05:35:23;;;;;;;5.10;3.03;;;3.20;99.90;;;;;;4880832;29;20990;-88
2021/03/15 05:37:49;;;;;;;6.27;2.90;;;3.20;99.90;;;;;;4880482;29;20460;-88
2021/03/15 05:40:21;;;;;;;3.00;2.70;;;3.20;99.90;;;;;;4884287;29;20460;-88
2021/03/15 05:43:05;;;;;;;4.53;3.30;;;3.30;99.90;;;;;;4887098;29;20852;-87
2021/03/15 05:46:12;;;;;;;4.87;3.23;;;3.30;99.90;;;;;;4894747;29;20449;-88
2021/03/15 05:48:44;;;;;;;3.60;2.87;;;3.30;99.90;;;;;;4883368;29;20459;-87
2021/03/15 05:51:47;;;;;;;3.70;2.77;;;3.40;99.90;;;;;;4908518;29;21068;-88
2021/03/15 05:54:50;;;;;;;2.37;2.00;;;3.30;99.90;;;;;;4881265;29;20468;-88
2021/03/15 05:57:42;;;;;;;3.00;2.60;;;3.40;99.90;;;;;;4879191;29;20448;-88
2021/03/15 06:00:10;;;;;;;5.30;2.40;;;3.40;99.90;;;;;;4880346;29;20465;-84
2021/03/15 06:02:54;;;;;;;12.60;10.60;;;3.40;99.90;;;;;;4881367;29;20769;-83
2021/03/15 06:05:20;;;;;;;8.97;8.07;;;3.40;99.90;;;;;;4879002;29;20448;-86
2021/03/15 06:07:52;;;;;;;4.47;2.30;;;3.50;99.90;;;;;;4877039;29;20477;-85
2021/03/15 06:10:46;;;;;;;2.73;2.33;;;3.50;99.90;;;;;;4883324;29;20480;-85
2021/03/15 06:13:14;;;;;;;6.23;3.13;;;3.50;99.90;;;;;;4895457;29;20449;-85
2021/03/15 06:15:41;;;;;;;3.00;2.30;;;3.40;99.90;;;;;;4878283;29;20547;-85
2021/03/15 06:18:09;;;;;;;7.33;2.77;;;3.40;99.90;;;;;;4883980;29;20435;-85
2021/03/15 06:20:37;;;;;;;5.67;2.60;;;3.50;99.90;;;;;;4876852;29;20444;-85
2021/03/15 06:23:04;;;;;;;4.17;2.47;;;3.50;99.90;;;;;;4886181;29;20790;-85
2021/03/15 06:25:31;;;;;;;4.17;2.50;;;3.40;99.90;;;;;;4886911;29;20507;-85
2021/03/15 06:27:57;;;;;;;5.23;2.97;;;3.40;99.90;;;;;;4874735;29;20980;-86
2021/03/15 06:30:25;;;;;;;7.77;2.60;;;3.40;99.90;;;;;;4877495;29;20839;-85
2021/03/15 06:32:53;;;;;;;7.07;3.20;;;3.50;99.90;;;;;;4878276;29;21279;-85
2021/03/15 06:35:23;;;;;;;3.70;2.57;;;3.50;99.90;;;;;;4874847;29;20453;-85
2021/03/15 06:37:49;;;;;;;5.73;2.57;;;3.60;99.90;;;;;;4877365;29;20484;-85
2021/03/15 06:40:15;;;;;;;2.67;2.30;;;3.60;99.90;;;;;;4875710;29;20476;-85
2021/03/15 06:42:42;;;;;;;3.03;2.40;;;3.60;99.90;;;;;;4880948;29;20452;-85
2021/03/15 06:45:12;;;;;;;3.40;2.57;;;3.50;99.90;;;;;;4876338;29;20204;-85
2021/03/15 06:47:43;;;;;;;3.20;2.83;;;3.50;99.90;;;;;;4881368;29;20520;-85
2021/03/15 06:50:13;;;;;;;3.73;2.50;;;3.60;99.90;;;;;;4881513;29;20883;-85
2021/03/15 06:53:00;;;;;;;3.40;2.13;;;3.60;99.90;;;;;;4880388;29;20476;-85
2021/03/15 06:55:31;;;;;;;4.87;1.97;;;3.60;99.90;;;;;;4874466;29;20467;-85
2021/03/15 06:57:56;;;;;;;3.90;1.63;;;3.60;99.90;;;;;;4881938;29;20476;-85
2021/03/15 07:00:26;;;;;;;3.73;2.00;;;3.60;99.90;;;;;;4878729;29;20446;-85
2021/03/15 07:03:03;;;;;;;3.33;2.37;;;3.70;99.90;;;;;;4876599;29;20460;-86
2021/03/15 07:05:30;;;;;;;2.50;2.10;;;3.80;99.90;;;;;;4890118;29;20607;-85
2021/03/15 07:08:00;;;;;;;2.77;1.93;;;3.80;99.90;;;;;;4883504;29;20788;-84
2021/03/15 07:10:29;;;;;;;2.90;1.90;;;3.90;99.90;;;;;;4880554;29;20486;-83
2021/03/15 07:13:12;;;;;;;2.87;2.07;;;3.80;99.90;;;;;;4879808;29;20450;-84
2021/03/15 07:15:39;;;;;;;2.90;2.10;;;3.90;99.90;;;;;;4883499;29;20860;-84
2021/03/15 07:18:29;;;;;;;3.30;2.50;;;3.90;99.90;;;;;;4885265;29;20962;-84
2021/03/15 07:21:05;;;;;;;4.67;1.90;;;4.00;99.90;;;;;;4882984;29;20461;-86
2021/03/15 07:23:47;;;;;;;1.93;1.83;;;4.00;99.90;;;;;;4878443;29;20445;-86
2021/03/15 07:26:30;;;;;;;3.00;2.03;;;3.90;99.90;;;;;;4874928;29;20449;-87
2021/03/15 07:28:56;;;;;;;4.07;1.90;;;3.90;99.90;;;;;;4883091;29;20508;-86
2021/03/15 07:31:30;;;;;;;3.30;2.30;;;3.90;99.90;;;;;;4884669;29;20890;-85
2021/03/15 07:33:56;;;;;;;2.17;2.07;;;4.00;99.90;;;;;;4889830;29;20446;-87
2021/03/15 07:36:34;;;;;;;2.33;2.13;;;4.00;99.90;;;;;;4877644;29;20475;-87
2021/03/15 07:39:07;;;;;;;2.97;2.37;;;4.10;99.90;;;;;;4873140;29;20193;-89
2021/03/15 07:41:37;;;;;;;2.43;2.23;;;4.10;99.90;;;;;;4878877;29;20990;-90
2021/03/15 07:44:22;;;;;;;1.73;1.63;;;4.10;99.90;;;;;;4877754;29;20636;-88
2021/03/15 07:46:49;;;;;;;2.77;2.20;;;4.00;99.90;;;;;;4878073;29;20465;-91
2021/03/15 07:49:26;;;;;;;2.73;2.43;;;4.00;99.90;;;;;;4879978;29;20473;-90
2021/03/15 07:52:00;;;;;;;2.53;2.33;;;3.90;99.90;;;;;;4880045;29;20461;-90
2021/03/15 07:54:35;;;;;;;2.03;1.83;;;3.80;99.90;;;;;;4873309;29;20463;-90
2021/03/15 07:57:19;;;;;;;2.37;2.17;;;3.70;99.90;;;;;;4876308;29;20479;-89
2021/03/15 07:59:52;;;;;;;1.80;1.60;;;3.60;99.90;;;;;;4880101;29;21042;-89
2021/03/15 08:02:34;;;;;;;2.03;1.67;;;3.50;99.90;;;;;;4891733;29;20456;-90
2021/03/15 08:05:00;;;;;;;2.20;2.00;;;3.40;99.90;;;;;;4877276;29;20472;-90
2021/03/15 08:07:26;;;;;;;1.80;1.70;;;3.40;99.90;;;;;;4879388;29;20486;-90
2021/03/15 08:09:56;;;;;;;2.13;1.93;;;3.30;99.90;;;;;;4875162;29;20535;-91
2021/03/15 08:12:30;;;;;;;3.53;2.73;;;3.40;99.90;;;;;;4896529;29;20196;-90
2021/03/15 08:15:12;;;;;;;1.53;1.40;;;3.40;99.90;;;;;;4880607;29;21235;-90
2021/03/15 08:17:42;;;;;;;1.90;1.80;;;3.50;99.90;;;;;;4882808;29;20562;-88
2021/03/15 08:20:09;;;;;;;2.20;2.00;;;3.50;99.90;;;;;;4878311;29;20456;-88
2021/03/15 08:22:41;;;;;;;2.97;1.90;;;3.60;99.90;;;;;;4875276;29;20890;-88
2021/03/15 08:25:08;;;;;;;2.20;2.00;;;3.70;99.90;;;;;;4872812;29;20608;-87
2021/03/15 08:27:41;;;;;;;2.53;1.50;;;3.70;99.90;;;;;;4874049;29;20524;-88
2021/03/15 08:30:15;;;;;;;2.50;2.30;;;3.70;99.90;;;;;;4882357;29;20491;-87
2021/03/15 08:32:42;;;;;;;1.87;1.77;;;3.80;99.90;;;;;;4879597;29;20452;-88
2021/03/15 08:35:09;;;;;;;1.80;1.50;;;3.90;99.90;;;;;;4884137;29;20862;-87
2021/03/15 08:37:54;;;;;;;1.70;1.60;;;4.00;99.90;;;;;;4878733;29;20544;-89
2021/03/15 08:40:42;;;;;;;1.63;1.40;;;4.10;99.90;;;;;;4889003;29;20560;-89
2021/03/15 08:43:17;;;;;;;2.10;1.50;;;4.10;99.90;;;;;;4877561;29;20547;-89
2021/03/15 08:46:04;;;;;;;1.60;1.50;;;4.20;99.90;;;;;;4883489;29;20463;-88
2021/03/15 08:48:33;;;;;;;2.20;2.00;;;4.30;99.90;;;;;;4886392;29;20465;-88
2021/03/15 08:51:00;;;;;;;1.27;1.23;;;4.50;99.90;;;;;;4886170;29;20551;-88
2021/03/15 08:53:38;;;;;;;1.60;1.50;;;4.60;99.90;;;;;;4892268;29;20444;-87
2021/03/15 08:56:32;;;;;;;1.50;1.40;;;4.70;99.90;;;;;;4882824;29;20462;-88
2021/03/15 08:59:09;;;;;;;1.33;1.17;;;4.80;99.90;;;;;;4897210;29;20456;-89
2021/03/15 09:01:48;;;;;;;1.00;0.83;;;4.60;99.90;;;;;;4884380;29;21034;-87
2021/03/15 09:04:41;;;;;;;1.23;1.00;;;4.60;99.90;;;;;;4886533;29;20461;-87
2021/03/15 09:07:31;;;;;;;1.23;1.23;;;4.50;99.90;;;;;;4884566;29;20934;-87
2021/03/15 09:09:57;;;;;;;0.67;0.67;;;4.60;99.90;;;;;;4883249;29;20998;-88
2021/03/15 09:12:23;;;;;;;1.10;0.97;;;4.60;99.90;;;;;;4882296;29;21070;-89
2021/03/15 09:14:58;;;;;;;1.47;0.90;;;4.60;99.90;;;;;;4883749;29;20538;-88
2021/03/15 09:17:23;;;;;;;0.77;0.77;;;4.60;99.90;;;;;;4879785;29;20208;-88
2021/03/15 09:19:51;;;;;;;0.60;0.60;;;4.60;99.90;;;;;;4885167;29;20467;-89
2021/03/15 09:22:22;;;;;;;0.80;0.80;;;4.60;99.90;;;;;;4880092;29;20204;-89
2021/03/15 09:24:52;;;;;;;49.63;36.67;;;4.70;99.90;;;;;;4886116;29;20449;-89
2021/03/15 09:27:23;;;;;;;1.03;0.93;;;4.80;99.90;;;;;;4886544;29;20457;-88
2021/03/15 09:30:10;;;;;;;0.53;0.53;;;4.80;99.90;;;;;;4886732;29;20545;-89
2021/03/15 09:32:40;;;;;;;0.90;0.90;;;4.80;99.90;;;;;;4875896;29;20547;-87
2021/03/15 09:35:23;;;;;;;1.40;1.30;;;4.80;99.90;;;;;;4878922;29;20456;-88
2021/03/15 09:37:57;;;;;;;0.73;0.73;;;5.00;99.90;;;;;;4881575;29;20498;-88
2021/03/15 09:40:26;;;;;;;0.93;0.80;;;4.90;99.90;;;;;;4892439;29;20793;-88
2021/03/15 09:42:52;;;;;;;1.13;0.97;;;4.80;99.90;;;;;;4883463;29;20816;-88
2021/03/15 09:45:55;;;;;;;1.27;0.80;;;4.80;99.90;;;;;;4881513;29;22141;-87
2021/03/15 09:48:23;;;;;;;0.70;0.60;;;4.90;99.90;;;;;;4877112;29;20466;-87
2021/03/15 09:51:07;;;;;;;1.47;1.00;;;4.70;99.90;;;;;;4876692;29;20527;-88
2021/03/15 09:53:33;;;;;;;0.90;0.90;;;4.70;99.90;;;;;;4880338;29;20803;-88
2021/03/15 09:56:10;;;;;;;0.70;0.70;;;4.90;99.90;;;;;;4878626;29;20495;-87
2021/03/15 09:58:37;;;;;;;0.80;0.80;;;4.90;99.90;;;;;;4885888;29;20210;-86
2021/03/15 10:01:17;;;;;;;0.77;0.77;;;5.10;99.90;;;;;;4875739;29;20474;-88
2021/03/15 10:03:51;;;;;;;0.87;0.87;;;5.30;99.90;;;;;;4882878;29;20549;-89
2021/03/15 10:06:21;;;;;;;0.93;0.93;;;5.50;99.90;;;;;;4882602;29;20449;-89
2021/03/15 10:08:48;;;;;;;1.00;1.00;;;5.60;99.90;;;;;;4885738;29;20453;-89
2021/03/15 10:11:15;;;;;;;0.80;0.63;;;5.60;99.90;;;;;;4877399;29;20652;-89
2021/03/15 10:13:41;;;;;;;1.20;1.10;;;5.80;99.90;;;;;;4885881;29;20445;-89
2021/03/15 10:16:07;;;;;;;0.83;0.83;;;5.80;99.90;;;;;;4876415;29;21267;-87
2021/03/15 10:18:33;;;;;;;1.00;1.00;;;5.90;99.90;;;;;;4886900;29;20437;-86
2021/03/15 10:20:59;;;;;;;1.13;1.03;;;5.90;99.90;;;;;;4883653;29;20452;-86
2021/03/15 10:23:28;;;;;;;1.57;1.23;;;5.80;99.90;;;;;;4887657;29;20189;-87
2021/03/15 10:25:57;;;;;;;1.50;1.40;;;5.90;99.90;;;;;;4899009;29;20722;-88
2021/03/15 10:28:23;;;;;;;2.60;1.80;;;6.00;99.90;;;;;;4879190;29;20454;-88
2021/03/15 10:30:50;;;;;;;1.63;1.53;;;6.00;99.90;;;;;;4878946;29;20780;-87
2021/03/15 10:33:20;;;;;;;2.17;1.43;;;6.20;99.90;;;;;;4874318;29;20493;-86
2021/03/15 10:35:47;;;;;;;1.60;1.50;;;6.00;99.90;;;;;;4884882;29;20514;-87
2021/03/15 10:38:13;;;;;;;1.63;1.53;;;5.80;99.90;;;;;;4883207;29;20958;-86
2021/03/15 10:40:39;;;;;;;2.03;1.80;;;5.50;99.90;;;;;;4888823;29;20504;-87
2021/03/15 10:43:05;;;;;;;1.77;1.67;;;5.40;99.90;;;;;;4884454;29;21010;-87
2021/03/15 10:45:31;;;;;;;1.63;1.43;;;5.40;99.90;;;;;;4882988;29;20782;-86
2021/03/15 10:48:06;;;;;;;1.50;1.43;;;5.50;99.90;;;;;;4884466;29;21097;-86
2021/03/15 10:50:34;;;;;;;2.77;2.50;;;5.40;99.90;;;;;;4878972;29;21007;-86
2021/03/15 10:53:16;;;;;;;2.00;1.80;;;5.40;99.90;;;;;;4886241;29;21006;-86
2021/03/15 10:55:43;;;;;;;2.80;2.40;;;5.40;99.90;;;;;;4884494;29;20797;-87
2021/03/15 10:58:16;;;;;;;1.40;1.30;;;5.50;99.90;;;;;;4885604;29;20456;-86
2021/03/15 11:00:50;;;;;;;1.90;1.50;;;5.60;99.90;;;;;;4896056;29;20445;-87
2021/03/15 11:03:24;;;;;;;1.53;1.43;;;5.70;99.90;;;;;;4887155;29;20452;-86
2021/03/15 11:06:14;;;;;;;1.50;1.40;;;5.70;99.90;;;;;;4882384;29;20465;-87
2021/03/15 11:08:40;;;;;;;1.87;1.77;;;5.60;99.90;;;;;;4889058;29;20456;-87
2021/03/15 11:11:23;;;;;;;3.93;2.37;;;5.70;99.90;;;;;;4885933;29;21003;-87
2021/03/15 11:13:57;;;;;;;3.27;1.87;;;5.70;99.90;;;;;;4894585;29;21709;-86
2021/03/15 11:16:31;;;;;;;2.20;1.70;;;5.70;99.90;;;;;;4883808;29;20520;-88
2021/03/15 11:19:16;;;;;;;1.80;1.70;;;5.90;99.90;;;;;;4885349;29;20468;-87
2021/03/15 11:21:44;;;;;;;1.10;1.10;;;6.00;99.90;;;;;;4887720;29;20483;-88
2021/03/15 11:24:10;;;;;;;1.97;1.87;;;6.00;99.90;;;;;;4885915;29;20457;-87
2021/03/15 11:26:56;;;;;;;1.50;1.40;;;6.00;99.90;;;;;;4879966;29;20488;-88
2021/03/15 11:29:38;;;;;;;1.60;1.50;;;6.00;99.90;;;;;;4885087;29;20448;-87
2021/03/15 11:32:13;;;;;;;1.43;1.33;;;6.00;99.90;;;;;;4887900;29;20976;-87
2021/03/15 11:34:49;;;;;;;1.13;1.10;;;6.00;99.90;;;;;;4881129;29;20773;-88
2021/03/15 11:37:22;;;;;;;1.03;1.00;;;6.00;99.90;;;;;;4883998;29;20558;-87
2021/03/15 11:39:48;;;;;;;1.37;1.10;;;5.80;99.90;;;;;;4881434;29;20460;-87
2021/03/15 11:42:30;;;;;;;0.83;0.83;;;5.70;99.90;;;;;;4888532;29;20452;-87
2021/03/15 11:44:56;;;;;;;1.13;1.13;;;5.70;99.90;;;;;;4880176;29;20769;-87
2021/03/15 11:47:21;;;;;;;1.30;1.17;;;5.70;99.90;;;;;;4882874;29;20479;-87
2021/03/15 11:49:47;;;;;;;2.10;1.53;;;5.70;99.90;;;;;;4881489;29;20532;-87
2021/03/15 11:52:26;;;;;;;2.00;1.30;;;6.00;99.90;;;;;;4882808;29;20280;-87
2021/03/15 11:54:52;;;;;;;1.27;1.17;;;6.30;99.90;;;;;;4886149;29;20200;-87
2021/03/15 11:57:18;;;;;;;1.20;1.10;;;6.60;99.90;;;;;;4882942;29;20459;-87
2021/03/15 11:59:43;;;;;;;1.40;1.30;;;7.00;99.90;;;;;;4893563;29;20812;-88
2021/03/15 12:02:17;;;;;;;1.93;1.37;;;7.60;99.90;;;;;;4884652;29;20790;-87
2021/03/15 12:04:43;;;;;;;1.70;1.40;;;7.80;99.90;;;;;;4885072;29;20288;-87
2021/03/15 12:07:09;;;;;;;1.63;1.53;;;7.50;99.90;;;;;;4880597;29;20535;-87
2021/03/15 12:09:34;;;;;;;1.63;1.53;;;7.10;99.90;;;;;;4874549;29;20209;-87
2021/03/15 12:12:00;;;;;;;2.00;1.90;;;6.90;99.90;;;;;;4886265;29;20211;-87
2021/03/15 12:14:26;;;;;;;1.57;1.47;;;6.90;99.90;;;;;;4882593;29;20212;-87
2021/03/15 12:16:51;;;;;;;2.20;1.60;;;6.80;99.90;;;;;;4886248;29;20198;-86
2021/03/15 12:19:17;;;;;;;2.27;2.10;;;6.80;99.90;;;;;;4887807;29;20204;-87
2021/03/15 12:21:43;;;;;;;1.60;1.50;;;6.80;99.90;;;;;;4886619;29;20560;-88
2021/03/15 12:24:09;;;;;;;1.90;1.80;;;6.70;99.90;;;;;;4883109;29;20208;-88
2021/03/15 12:26:35;;;;;;;2.63;2.20;;;6.70;99.90;;;;;;4884427;29;20378;-87
2021/03/15 12:29:01;;;;;;;1.70;1.60;;;6.80;99.90;;;;;;4881690;29;20453;-88
2021/03/15 12:31:27;;;;;;;1.90;1.80;;;6.90;99.90;;;;;;4895422;29;20221;-88
2021/03/15 12:33:53;;;;;;;2.50;2.30;;;7.00;99.90;;;;;;4883466;29;20448;-87
2021/03/15 12:36:19;;;;;;;2.50;2.30;;;7.20;99.90;;;;;;4886032;29;20333;-87
2021/03/15 12:38:44;;;;;;;2.30;1.60;;;7.80;99.90;;;;;;4888564;29;20587;-87
2021/03/15 12:41:10;;;;;;;2.67;2.47;;;7.90;99.90;;;;;;4889085;29;21502;-87
2021/03/15 12:43:37;;;;;;;2.17;2.07;;;7.70;99.90;;;;;;4899185;29;21515;-88
2021/03/15 12:46:02;;;;;;;2.50;2.30;;;8.00;99.90;;;;;;4881761;29;20190;-88
2021/03/15 12:48:29;;;;;;;2.10;2.00;;;7.90;99.90;;;;;;4883950;29;20467;-87
2021/03/15 12:50:55;;;;;;;2.77;2.50;;;7.70;99.90;;;;;;4882851;29;20269;-87
2021/03/15 12:53:20;;;;;;;2.33;2.23;;;7.50;99.90;;;;;;4888934;29;21314;-87
2021/03/15 12:55:46;;;;;;;2.43;2.23;;;7.50;99.90;;;;;;4881030;29;20207;-87
2021/03/15 12:58:16;;;;;;;2.70;2.50;;;7.50;99.90;;;;;;4884793;29;20209;-88
2021/03/15 13:00:44;;;;;;;1.60;1.50;;;7.70;99.90;;;;;;4879278;29;20279;-87
2021/03/15 13:03:10;;;;;;;2.10;2.00;;;8.00;99.90;;;;;;4890125;29;20864;-88
2021/03/15 13:05:35;;;;;;;2.60;2.40;;;8.30;99.90;;;;;;4887788;29;20445;-88
2021/03/15 13:08:01;;;;;;;2.77;2.57;;;8.80;99.90;;;;;;4888227;29;20190;-88
2021/03/15 13:10:26;;;;;;;2.37;2.27;;;9.80;99.90;;;;;;4885273;29;20225;-88
2021/03/15 13:12:52;;;;;;;2.63;2.47;;;9.80;99.90;;;;;;4875990;29;20198;-88
2021/03/15 13:15:18;;;;;;;4.47;3.50;;;10.40;99.90;;;;;;4888037;29;20200;-88
2021/03/15 13:17:46;;;;;;;4.10;3.80;;;11.30;99.90;;;;;;4887857;29;20194;-87